Time;durP1;ratioP1;P1;durP2;ratioP2;P2;SDS_P1;SDS_P2;PMS_P1;PMS_P2;Temp;Humidity;BMP_temperature;BMP_pressure;BME280_temperature;BME280_humidity;BME280_pressure;Samples;Min_cycle;Max_cycle;Signal;HPM_P1;HPM_P2
2023/05/10 00:00:52;;;;;;;;;;;20.40;65.00;;;;;;4992782;28;20350;-63
2023/05/10 00:03:18;;;;;;;;;;;20.40;65.10;;;;;;4992690;28;19941;-66
2023/05/10 00:05:43;;;;;;;;;;;20.40;65.00;;;;;;4974926;28;20235;-63
2023/05/10 00:08:08;;;;;;;;;;;20.40;65.10;;;;;;4987405;28;19913;-63
2023/05/10 00:10:34;;;;;;;;;;;20.30;65.10;;;;;;4981085;28;20388;-62
2023/05/10 00:12:59;;;;;;;;;;;20.40;65.10;;;;;;4978831;28;19922;-63
2023/05/10 00:15:25;;;;;;;;;;;20.30;65.20;;;;;;4988220;28;19922;-62
2023/05/10 00:17:50;;;;;;;;;;;20.30;65.20;;;;;;4984094;28;19964;-62
2023/05/10 00:20:16;;;;;;;;;;;20.30;65.00;;;;;;4992201;28;19921;-62
2023/05/10 00:22:41;;;;;;;;;;;20.20;65.00;;;;;;4980940;28;19915;-63
2023/05/10 00:25:07;;;;;;;;;;;20.20;65.20;;;;;;4973715;28;19925;-63
2023/05/10 00:27:32;;;;;;;;;;;20.20;65.30;;;;;;4981289;28;20350;-63
2023/05/10 00:29:58;;;;;;;;;;;20.20;65.50;;;;;;4980633;28;19918;-63
2023/05/10 00:32:23;;;;;;;;;;;20.20;65.60;;;;;;4984040;28;19917;-62
2023/05/10 00:34:49;;;;;;;;;;;20.20;65.70;;;;;;4973225;28;20013;-63
2023/05/10 00:37:14;;;;;;;;;;;20.20;65.80;;;;;;4978525;28;19913;-63
2023/05/10 00:39:39;;;;;;;;;;;20.20;65.90;;;;;;4992011;28;20444;-63
2023/05/10 00:42:05;;;;;;;;;;;20.30;65.80;;;;;;4991946;28;20424;-63
2023/05/10 00:44:30;;;;;;;;;;;20.30;65.70;;;;;;4975277;28;19917;-62
2023/05/10 00:46:56;;;;;;;;;;;20.20;65.70;;;;;;4991844;28;19922;-62
2023/05/10 00:49:22;;;;;;;;;;;20.20;65.70;;;;;;4986886;28;19921;-62
2023/05/10 00:51:48;;;;;;;;;;;20.20;65.80;;;;;;4972609;28;19918;-62
2023/05/10 00:54:14;;;;;;;;;;;20.20;65.90;;;;;;4972874;28;19914;-62
2023/05/10 00:56:40;;;;;;;;;;;20.20;65.90;;;;;;4972550;28;19958;-63
2023/05/10 00:59:05;;;;;;;;;;;20.20;65.90;;;;;;4988636;28;19957;-63
2023/05/10 01:01:31;;;;;;;;;;;20.20;65.90;;;;;;4992525;28;19918;-62
2023/05/10 01:03:57;;;;;;;;;;;20.20;65.90;;;;;;4992009;28;19914;-63
2023/05/10 01:06:23;;;;;;;;;;;20.20;65.80;;;;;;4991875;28;19920;-62
2023/05/10 01:08:48;;;;;;;;;;;20.20;65.80;;;;;;4992056;28;19913;-62
2023/05/10 01:11:14;;;;;;;;;;;20.20;65.90;;;;;;4991686;28;19953;-62
2023/05/10 01:13:41;;;;;;;;;;;20.20;65.90;;;;;;4992246;28;19917;-62
2023/05/10 01:16:06;;;;;;;;;;;20.20;65.90;;;;;;4991894;28;19918;-62
2023/05/10 01:18:36;;;;;;;;;;;20.20;65.90;;;;;;4991473;28;19925;-62
2023/05/10 01:21:07;;;;;;;;;;;20.20;66.00;;;;;;4980696;28;19926;-62
2023/05/10 01:23:37;;;;;;;;;;;20.20;66.10;;;;;;4976708;28;19957;-62
2023/05/10 01:26:06;;;;;;;;;;;20.20;66.10;;;;;;4977981;28;20892;-62
2023/05/10 01:28:49;;;;;;;;;;;20.20;66.10;;;;;;4989853;28;19918;-63
2023/05/10 01:31:33;;;;;;;;;;;20.20;66.20;;;;;;4981451;28;19925;-63
2023/05/10 01:34:01;;;;;;;;;;;20.20;66.20;;;;;;4996939;28;19914;-66
2023/05/10 01:36:30;;;;;;;;;;;20.20;66.20;;;;;;4986769;28;20211;-67
2023/05/10 01:39:02;;;;;;;;;;;20.20;66.10;;;;;;4993225;28;19942;-66
2023/05/10 01:41:44;;;;;;;;;;;20.20;66.00;;;;;;5000297;28;20169;-67
2023/05/10 01:44:16;;;;;;;;;;;20.20;66.10;;;;;;4995266;28;19914;-67
2023/05/10 01:46:41;;;;;;;;;;;20.20;66.20;;;;;;5000152;28;20261;-67
2023/05/10 01:49:33;;;;;;;;;;;20.20;66.20;;;;;;4998078;28;19922;-67
2023/05/10 01:52:09;;;;;;;;;;;20.20;66.20;;;;;;4997334;28;19918;-66
2023/05/10 01:54:35;;;;;;;;;;;20.20;66.00;;;;;;5001305;28;19918;-67
2023/05/10 01:57:03;;;;;;;;;;;20.20;65.90;;;;;;4978355;28;19918;-67
2023/05/10 01:59:31;;;;;;;;;;;20.20;66.10;;;;;;4991726;28;19914;-68
2023/05/10 02:01:58;;;;;;;;;;;20.20;66.00;;;;;;5002537;28;19953;-67
2023/05/10 02:04:24;;;;;;;;;;;20.10;66.10;;;;;;5001513;28;19969;-67
2023/05/10 02:06:51;;;;;;;;;;;20.20;66.20;;;;;;4987433;28;19922;-68
2023/05/10 02:09:17;;;;;;;;;;;20.20;66.30;;;;;;4993500;28;19910;-68
2023/05/10 02:11:43;;;;;;;;;;;20.20;66.30;;;;;;4980126;28;19926;-67
2023/05/10 02:14:10;;;;;;;;;;;20.20;66.20;;;;;;4988705;28;19914;-67
2023/05/10 02:16:35;;;;;;;;;;;20.20;66.10;;;;;;4981334;28;19918;-65
2023/05/10 02:19:01;;;;;;;;;;;20.10;66.10;;;;;;4989290;28;20016;-65
2023/05/10 02:21:27;;;;;;;;;;;20.10;66.20;;;;;;4990631;28;19921;-66
2023/05/10 02:23:53;;;;;;;;;;;20.00;66.10;;;;;;4988607;28;19920;-66
2023/05/10 02:26:20;;;;;;;;;;;19.90;66.00;;;;;;4995594;28;20350;-66
2023/05/10 02:28:46;;;;;;;;;;;19.90;66.00;;;;;;4996240;28;20008;-67
2023/05/10 02:31:13;;;;;;;;;;;19.90;66.00;;;;;;4985995;28;20061;-67
2023/05/10 02:33:39;;;;;;;;;;;19.80;66.10;;;;;;4988386;28;20000;-67
2023/05/10 02:36:06;;;;;;;;;;;19.80;66.20;;;;;;4994512;28;19921;-67
2023/05/10 02:38:32;;;;;;;;;;;19.80;66.10;;;;;;4996376;28;20398;-67
2023/05/10 02:40:58;;;;;;;;;;;19.70;66.30;;;;;;4980692;28;19914;-67
2023/05/10 02:43:24;;;;;;;;;;;19.70;66.20;;;;;;4980725;28;19914;-67
2023/05/10 02:45:49;;;;;;;;;;;19.70;66.10;;;;;;4982917;28;20369;-67
2023/05/10 02:48:15;;;;;;;;;;;19.70;66.10;;;;;;4984356;28;19917;-66
2023/05/10 02:50:43;;;;;;;;;;;19.70;66.20;;;;;;4997754;28;19957;-67
2023/05/10 02:53:15;;;;;;;;;;;19.60;66.30;;;;;;4993004;28;19972;-66
2023/05/10 02:55:42;;;;;;;;;;;19.60;66.30;;;;;;4986238;28;19922;-66
2023/05/10 02:58:07;;;;;;;;;;;19.60;66.30;;;;;;4987604;28;19914;-67
2023/05/10 03:00:32;;;;;;;;;;;19.60;66.20;;;;;;5000079;28;20060;-67
2023/05/10 03:02:58;;;;;;;;;;;19.60;66.30;;;;;;4999367;28;19921;-67
2023/05/10 03:05:23;;;;;;;;;;;19.60;66.30;;;;;;4997987;28;19994;-66
2023/05/10 03:07:49;;;;;;;;;;;19.60;66.20;;;;;;4984493;28;19918;-66
2023/05/10 03:10:15;;;;;;;;;;;19.60;66.30;;;;;;4994227;28;20480;-67
2023/05/10 03:12:53;;;;;;;;;;;19.60;66.20;;;;;;4992269;28;19985;-67
2023/05/10 03:15:21;;;;;;;;;;;19.60;66.40;;;;;;5002221;28;19918;-67
2023/05/10 03:17:53;;;;;;;;;;;19.60;66.40;;;;;;4965706;28;19965;-67
2023/05/10 03:20:38;;;;;;;;;;;19.60;66.50;;;;;;4983060;28;19950;-67
2023/05/10 03:23:08;;;;;;;;;;;19.60;66.60;;;;;;4983449;28;20357;-67
2023/05/10 03:25:33;;;;;;;;;;;19.60;66.50;;;;;;4983215;28;19925;-67
2023/05/10 03:28:00;;;;;;;;;;;19.60;66.60;;;;;;4987727;28;20008;-67
2023/05/10 03:30:26;;;;;;;;;;;19.60;66.60;;;;;;5002355;28;19928;-67
2023/05/10 03:32:52;;;;;;;;;;;19.60;66.60;;;;;;5001958;28;19945;-67
2023/05/10 03:35:17;;;;;;;;;;;19.70;66.60;;;;;;5002934;28;19998;-67
2023/05/10 03:37:43;;;;;;;;;;;19.70;66.60;;;;;;5004086;28;19910;-67
2023/05/10 03:40:08;;;;;;;;;;;19.70;66.60;;;;;;5002765;28;20007;-67
2023/05/10 03:42:34;;;;;;;;;;;19.70;66.70;;;;;;4979380;28;20634;-66
2023/05/10 03:44:59;;;;;;;;;;;19.70;66.50;;;;;;4995619;28;19918;-66
2023/05/10 03:47:25;;;;;;;;;;;19.70;66.60;;;;;;4996351;28;19980;-66
2023/05/10 03:49:50;;;;;;;;;;;19.70;66.60;;;;;;4999168;28;19928;-66
2023/05/10 03:52:16;;;;;;;;;;;19.70;66.50;;;;;;5001473;28;20372;-67
2023/05/10 03:54:41;;;;;;;;;;;19.70;66.60;;;;;;5002497;28;20289;-67
2023/05/10 03:57:07;;;;;;;;;;;19.70;66.50;;;;;;5002892;28;19917;-67
2023/05/10 03:59:32;;;;;;;;;;;19.70;66.50;;;;;;4982278;28;19914;-67
2023/05/10 04:01:57;;;;;;;;;;;19.70;66.40;;;;;;4980833;28;20312;-67
2023/05/10 04:04:23;;;;;;;;;;;19.70;66.40;;;;;;4983501;28;19921;-66
2023/05/10 04:06:48;;;;;;;;;;;19.70;66.50;;;;;;4998896;28;19924;-66
2023/05/10 04:09:14;;;;;;;;;;;19.70;66.50;;;;;;4998743;28;19933;-66
2023/05/10 04:11:39;;;;;;;;;;;19.70;66.50;;;;;;4997955;28;19922;-66
2023/05/10 04:14:05;;;;;;;;;;;19.60;66.50;;;;;;4989493;28;20370;-66
2023/05/10 04:16:30;;;;;;;;;;;19.60;66.40;;;;;;4980182;28;19922;-66
2023/05/10 04:18:56;;;;;;;;;;;19.50;66.20;;;;;;4981820;28;19961;-66
2023/05/10 04:21:21;;;;;;;;;;;19.50;66.40;;;;;;4979071;28;19914;-67
2023/05/10 04:23:47;;;;;;;;;;;19.50;66.60;;;;;;4981424;28;19961;-66
2023/05/10 04:26:12;;;;;;;;;;;19.50;66.50;;;;;;4981459;28;19915;-67
2023/05/10 04:28:38;;;;;;;;;;;19.50;66.60;;;;;;4982130;28;19918;-67
2023/05/10 04:31:04;;;;;;;;;;;19.50;66.40;;;;;;4981743;28;19919;-67
2023/05/10 04:33:30;;;;;;;;;;;19.40;66.40;;;;;;4979036;28;20262;-67
2023/05/10 04:35:55;;;;;;;;;;;19.40;66.40;;;;;;4977334;28;20042;-67
2023/05/10 04:38:21;;;;;;;;;;;19.40;66.50;;;;;;4978395;28;19918;-67
2023/05/10 04:40:46;;;;;;;;;;;19.40;66.20;;;;;;4994457;28;19918;-67
2023/05/10 04:43:11;;;;;;;;;;;19.30;66.00;;;;;;4976804;28;19914;-66
2023/05/10 04:45:37;;;;;;;;;;;19.30;65.90;;;;;;4977444;28;19921;-66
2023/05/10 04:48:02;;;;;;;;;;;19.20;65.90;;;;;;4994795;28;19918;-66
2023/05/10 04:50:28;;;;;;;;;;;19.20;66.00;;;;;;4981341;28;19918;-66
2023/05/10 04:52:53;;;;;;;;;;;19.10;66.10;;;;;;4977338;28;19919;-66
2023/05/10 04:55:18;;;;;;;;;;;19.10;66.30;;;;;;4980717;28;19918;-66
2023/05/10 04:57:44;;;;;;;;;;;19.10;66.30;;;;;;4991957;28;19914;-67
2023/05/10 05:00:10;;;;;;;;;;;19.10;66.40;;;;;;4980055;28;19922;-63
2023/05/10 05:02:36;;;;;;;;;;;19.10;66.50;;;;;;4995191;28;19964;-63
2023/05/10 05:05:01;;;;;;;;;;;19.10;66.60;;;;;;4982837;28;19918;-62
2023/05/10 05:07:26;;;;;;;;;;;19.10;66.60;;;;;;4995533;28;20353;-63
2023/05/10 05:09:52;;;;;;;;;;;19.10;66.60;;;;;;4995313;28;19914;-64
2023/05/10 05:12:17;;;;;;;;;;;19.20;66.60;;;;;;4995592;28;19914;-63
2023/05/10 05:14:43;;;;;;;;;;;19.20;66.70;;;;;;4995377;28;19921;-63
2023/05/10 05:17:08;;;;;;;;;;;19.20;66.70;;;;;;4995323;28;19910;-63
2023/05/10 05:19:34;;;;;;;;;;;19.20;66.70;;;;;;4995349;28;19918;-63
2023/05/10 05:21:59;;;;;;;;;;;19.30;66.70;;;;;;4992232;28;19925;-63
2023/05/10 05:24:25;;;;;;;;;;;19.30;66.70;;;;;;4995324;28;20459;-64
2023/05/10 05:26:50;;;;;;;;;;;19.30;66.80;;;;;;4982354;28;19996;-63
2023/05/10 05:29:16;;;;;;;;;;;19.30;66.80;;;;;;4975969;28;20477;-63
2023/05/10 05:31:41;;;;;;;;;;;19.40;66.90;;;;;;4985976;28;20011;-63
2023/05/10 05:34:06;;;;;;;;;;;19.40;66.90;;;;;;4995395;28;20015;-63
2023/05/10 05:36:32;;;;;;;;;;;19.50;66.80;;;;;;4990051;28;19964;-63
2023/05/10 05:38:58;;;;;;;;;;;19.50;66.70;;;;;;4995343;28;19921;-63
2023/05/10 05:41:24;;;;;;;;;;;19.50;66.60;;;;;;4987808;28;19924;-63
2023/05/10 05:43:50;;;;;;;;;;;19.50;66.70;;;;;;4989156;28;20312;-63
2023/05/10 05:46:15;;;;;;;;;;;19.50;66.60;;;;;;4993722;28;19918;-63
2023/05/10 05:48:40;;;;;;;;;;;19.60;66.60;;;;;;4991710;28;19922;-63
2023/05/10 05:51:06;;;;;;;;;;;19.60;66.60;;;;;;4998155;28;19922;-63
2023/05/10 05:53:31;;;;;;;;;;;19.60;66.50;;;;;;4994870;28;20346;-63
2023/05/10 05:55:58;;;;;;;;;;;19.60;66.50;;;;;;4987272;28;20334;-63
2023/05/10 05:58:24;;;;;;;;;;;19.60;66.50;;;;;;4975381;28;19915;-63
2023/05/10 06:00:49;;;;;;;;;;;19.60;66.50;;;;;;4984168;28;20364;-63
2023/05/10 06:03:15;;;;;;;;;;;19.60;66.40;;;;;;4990204;28;19914;-62
2023/05/10 06:05:40;;;;;;;;;;;19.60;66.30;;;;;;4992314;28;19975;-63
2023/05/10 06:08:06;;;;;;;;;;;19.50;66.50;;;;;;4995262;28;20269;-63
2023/05/10 06:10:31;;;;;;;;;;;19.60;66.60;;;;;;4983164;28;20381;-64
2023/05/10 06:12:56;;;;;;;;;;;19.60;66.60;;;;;;4975428;28;20377;-63
2023/05/10 06:15:22;;;;;;;;;;;19.70;66.80;;;;;;4994308;28;19921;-63
2023/05/10 06:17:49;;;;;;;;;;;19.70;66.70;;;;;;4993048;28;19921;-63
2023/05/10 06:20:14;;;;;;;;;;;19.70;66.60;;;;;;4991427;28;19925;-63
2023/05/10 06:22:40;;;;;;;;;;;19.80;66.60;;;;;;4994108;28;20004;-63
2023/05/10 06:25:06;;;;;;;;;;;19.80;66.30;;;;;;4992658;28;19925;-63
2023/05/10 06:27:31;;;;;;;;;;;19.70;66.10;;;;;;4993778;28;19973;-63
2023/05/10 06:29:57;;;;;;;;;;;19.70;66.20;;;;;;4986204;28;19961;-65
2023/05/10 06:32:23;;;;;;;;;;;19.70;66.40;;;;;;4992794;28;20384;-63
2023/05/10 06:34:48;;;;;;;;;;;19.70;66.60;;;;;;4991033;28;19922;-63
2023/05/10 06:37:13;;;;;;;;;;;19.80;66.60;;;;;;4993252;28;19910;-63
2023/05/10 06:39:39;;;;;;;;;;;19.80;66.70;;;;;;4993397;28;20277;-63
2023/05/10 06:42:05;;;;;;;;;;;19.80;66.90;;;;;;4994166;28;19922;-63
2023/05/10 06:44:30;;;;;;;;;;;19.90;66.70;;;;;;4992620;28;20257;-63
2023/05/10 06:46:56;;;;;;;;;;;19.90;66.40;;;;;;4993446;28;19926;-63
2023/05/10 06:49:21;;;;;;;;;;;19.90;66.40;;;;;;4993508;28;20289;-63
2023/05/10 06:51:48;;;;;;;;;;;20.00;66.80;;;;;;4993490;28;20361;-62
2023/05/10 06:54:13;;;;;;;;;;;20.00;66.70;;;;;;4993324;28;19918;-63
2023/05/10 06:56:39;;;;;;;;;;;20.10;66.80;;;;;;4993400;28;20284;-65
2023/05/10 06:59:04;;;;;;;;;;;20.20;66.80;;;;;;4993380;28;19920;-63
2023/05/10 07:01:30;;;;;;;;;;;20.30;66.80;;;;;;4993393;28;19918;-63
2023/05/10 07:03:55;;;;;;;;;;;20.30;66.80;;;;;;4992996;28;19917;-63
2023/05/10 07:06:21;;;;;;;;;;;20.40;66.60;;;;;;4992437;28;20372;-62
2023/05/10 07:08:46;;;;;;;;;;;20.40;66.70;;;;;;4993199;28;19917;-64
2023/05/10 07:11:11;;;;;;;;;;;20.40;66.30;;;;;;4992857;28;19914;-64
2023/05/10 07:13:38;;;;;;;;;;;20.50;66.40;;;;;;4993146;28;19918;-64
2023/05/10 07:16:06;;;;;;;;;;;20.50;66.40;;;;;;4992481;28;20388;-61
2023/05/10 07:18:31;;;;;;;;;;;20.50;66.60;;;;;;4993354;28;19922;-63
2023/05/10 07:20:56;;;;;;;;;;;20.70;66.70;;;;;;4992877;28;19918;-61
2023/05/10 07:23:22;;;;;;;;;;;20.70;66.70;;;;;;4993245;28;20325;-62
2023/05/10 07:25:48;;;;;;;;;;;20.80;66.70;;;;;;4992216;28;19972;-62
2023/05/10 07:28:14;;;;;;;;;;;20.90;66.60;;;;;;4993172;28;19924;-61
2023/05/10 07:30:39;;;;;;;;;;;21.00;66.80;;;;;;5006684;28;19918;-61
2023/05/10 07:33:05;;;;;;;;;;;21.20;66.70;;;;;;4993015;28;19972;-61
2023/05/10 07:35:30;;;;;;;;;;;21.30;66.80;;;;;;4991851;28;20019;-61
2023/05/10 07:37:56;;;;;;;;;;;21.40;66.80;;;;;;4992784;28;20008;-62
2023/05/10 07:40:21;;;;;;;;;;;21.50;66.30;;;;;;4991517;28;19972;-62
2023/05/10 07:42:47;;;;;;;;;;;21.60;65.90;;;;;;4992825;28;19917;-62
2023/05/10 07:45:12;;;;;;;;;;;21.60;65.50;;;;;;4991505;28;20336;-62
2023/05/10 07:47:37;;;;;;;;;;;21.70;65.50;;;;;;5007907;28;19984;-62
2023/05/10 07:50:03;;;;;;;;;;;21.70;65.50;;;;;;4991961;28;19973;-62
2023/05/10 07:52:29;;;;;;;;;;;21.70;65.80;;;;;;4992466;28;19917;-63
2023/05/10 07:54:56;;;;;;;;;;;21.70;65.50;;;;;;4991782;28;19980;-62
2023/05/10 07:57:22;;;;;;;;;;;21.80;65.80;;;;;;4992604;28;19921;-63
2023/05/10 07:59:47;;;;;;;;;;;21.80;65.80;;;;;;4991719;28;20285;-62
2023/05/10 08:02:13;;;;;;;;;;;21.80;65.80;;;;;;4992129;28;19914;-63
2023/05/10 08:04:38;;;;;;;;;;;22.00;66.30;;;;;;4991719;28;19918;-63
2023/05/10 08:07:03;;;;;;;;;;;22.10;66.30;;;;;;4991920;28;19913;-63
2023/05/10 08:09:29;;;;;;;;;;;22.30;66.30;;;;;;4992177;28;19914;-63
2023/05/10 08:11:54;;;;;;;;;;;22.40;66.20;;;;;;4992562;28;20281;-63
2023/05/10 08:14:20;;;;;;;;;;;22.40;65.70;;;;;;4991704;28;19992;-63
2023/05/10 08:16:45;;;;;;;;;;;22.50;65.40;;;;;;4992371;28;20377;-63
2023/05/10 08:19:11;;;;;;;;;;;22.60;65.30;;;;;;4991836;28;20324;-64
2023/05/10 08:21:37;;;;;;;;;;;22.70;65.10;;;;;;4992356;28;19964;-63
2023/05/10 08:24:02;;;;;;;;;;;22.80;65.50;;;;;;4991485;28;20008;-64
2023/05/10 08:26:28;;;;;;;;;;;22.90;65.30;;;;;;4992571;28;19914;-63
2023/05/10 08:28:53;;;;;;;;;;;23.00;64.90;;;;;;4993278;28;19953;-64
2023/05/10 08:31:19;;;;;;;;;;;23.10;65.20;;;;;;4996136;28;19972;-63
2023/05/10 08:33:44;;;;;;;;;;;23.20;65.40;;;;;;4983340;28;19972;-64
2023/05/10 08:36:09;;;;;;;;;;;23.30;65.20;;;;;;4985017;28;20282;-64
2023/05/10 08:38:35;;;;;;;;;;;23.40;65.10;;;;;;4996039;28;19965;-64
2023/05/10 08:41:01;;;;;;;;;;;23.50;64.70;;;;;;4995662;28;19926;-64
2023/05/10 08:43:28;;;;;;;;;;;23.50;64.50;;;;;;4996347;28;19960;-63
2023/05/10 08:45:55;;;;;;;;;;;23.50;64.70;;;;;;4995203;28;19925;-66
2023/05/10 08:48:22;;;;;;;;;;;23.70;65.10;;;;;;4996061;28;19953;-63
2023/05/10 08:50:48;;;;;;;;;;;23.90;65.80;;;;;;4994723;28;20000;-63
2023/05/10 08:53:14;;;;;;;;;;;24.30;65.50;;;;;;4996004;28;19917;-63
2023/05/10 08:55:41;;;;;;;;;;;24.80;65.90;;;;;;4995249;28;19918;-64
2023/05/10 08:58:07;;;;;;;;;;;25.30;65.90;;;;;;4997666;28;19918;-69
2023/05/10 09:00:33;;;;;;;;;;;25.60;65.40;;;;;;5001680;28;19918;-69
2023/05/10 09:02:59;;;;;;;;;;;25.70;64.90;;;;;;4992617;28;19913;-68
2023/05/10 09:05:24;;;;;;;;;;;25.80;64.20;;;;;;4999667;28;19941;-70
2023/05/10 09:07:50;;;;;;;;;;;25.80;63.10;;;;;;4997827;28;19910;-64
2023/05/10 09:10:15;;;;;;;;;;;25.70;63.10;;;;;;4981623;28;20285;-66
2023/05/10 09:12:41;;;;;;;;;;;25.80;63.20;;;;;;4988802;28;19917;-64
2023/05/10 09:15:07;;;;;;;;;;;25.70;63.50;;;;;;4987611;28;19977;-65
2023/05/10 09:17:33;;;;;;;;;;;25.70;63.20;;;;;;4979281;28;20001;-65
2023/05/10 09:19:59;;;;;;;;;;;25.60;63.00;;;;;;4981719;28;19968;-65
2023/05/10 09:22:24;;;;;;;;;;;25.40;62.40;;;;;;4985938;28;20361;-64
2023/05/10 09:25:09;;;;;;;;;;;25.00;61.70;;;;;;4988506;28;19925;-68
2023/05/10 09:27:34;;;;;;;;;;;24.50;61.60;;;;;;4976337;28;19928;-63
2023/05/10 09:30:00;;;;;;;;;;;23.80;61.30;;;;;;4991605;28;20012;-62
2023/05/10 09:32:38;;;;;;;;;;;23.40;61.80;;;;;;4995051;28;20368;-62
2023/05/10 09:35:07;;;;;;;;;;;23.10;63.00;;;;;;4991435;28;19925;-63
2023/05/10 09:37:33;;;;;;;;;;;23.00;64.20;;;;;;4992497;28;20031;-62
2023/05/10 09:39:58;;;;;;;;;;;22.90;64.40;;;;;;4994796;28;19968;-63
2023/05/10 09:42:24;;;;;;;;;;;22.90;65.00;;;;;;4978642;28;20286;-63
2023/05/10 09:44:49;;;;;;;;;;;23.00;65.30;;;;;;4987559;28;19920;-62
2023/05/10 09:47:18;;;;;;;;;;;23.00;66.10;;;;;;4986242;28;19968;-63
2023/05/10 09:49:44;;;;;;;;;;;23.20;66.10;;;;;;4993035;28;19918;-63
2023/05/10 09:52:10;;;;;;;;;;;23.30;66.40;;;;;;4993196;28;20346;-65
2023/05/10 09:54:36;;;;;;;;;;;23.70;66.60;;;;;;4995386;28;19937;-62
2023/05/10 09:57:01;;;;;;;;;;;24.10;66.80;;;;;;4991286;28;19926;-62
2023/05/10 09:59:27;;;;;;;;;;;24.40;66.30;;;;;;4991409;28;19918;-62
2023/05/10 10:01:55;;;;;;;;;;;24.80;66.70;;;;;;4990324;28;20012;-63
2023/05/10 10:04:21;;;;;;;;;;;25.30;65.30;;;;;;4992137;28;20372;-63
2023/05/10 10:06:46;;;;;;;;;;;25.80;65.10;;;;;;4982246;28;19918;-64
2023/05/10 10:09:13;;;;;;;;;;;26.20;63.90;;;;;;4981820;28;20380;-64
2023/05/10 10:11:38;;;;;;;;;;;26.70;64.30;;;;;;4989191;28;19924;-64
2023/05/10 10:14:04;;;;;;;;;;;27.40;64.80;;;;;;5005927;28;19921;-69
2023/05/10 10:16:30;;;;;;;;;;;28.00;64.10;;;;;;5012605;28;19918;-70
2023/05/10 10:18:56;;;;;;;;;;;28.30;63.00;;;;;;5009583;28;19925;-70
2023/05/10 10:21:22;;;;;;;;;;;28.70;62.90;;;;;;5008314;28;19918;-69
2023/05/10 10:23:47;;;;;;;;;;;29.00;62.40;;;;;;5009052;28;19993;-69
2023/05/10 10:26:13;;;;;;;;;;;29.40;62.10;;;;;;5010197;28;19922;-71
2023/05/10 10:28:56;;;;;;;;;;;29.70;61.90;;;;;;5009970;28;19980;-69
2023/05/10 10:31:38;;;;;;;;;;;29.90;61.40;;;;;;5003657;28;19971;-69
2023/05/10 10:34:16;;;;;;;;;;;30.00;61.10;;;;;;5010074;28;19944;-70
2023/05/10 10:36:43;;;;;;;;;;;29.80;60.70;;;;;;5014570;28;19993;-69
2023/05/10 10:39:09;;;;;;;;;;;29.50;60.90;;;;;;5013380;28;20263;-69
2023/05/10 10:41:35;;;;;;;;;;;29.20;60.80;;;;;;4993586;28;19946;-70
2023/05/10 10:44:19;;;;;;;;;;;29.00;61.40;;;;;;4987290;28;20028;-70
2023/05/10 10:47:09;;;;;;;;;;;29.50;63.10;;;;;;5008626;28;19918;-70
2023/05/10 10:49:41;;;;;;;;;;;30.20;62.30;;;;;;5028548;28;19918;-70
2023/05/10 10:52:13;;;;;;;;;;;31.10;61.60;;;;;;5008406;28;19922;-70
2023/05/10 10:54:39;;;;;;;;;;;31.50;60.20;;;;;;5009462;28;19929;-69
2023/05/10 10:57:14;;;;;;;;;;;32.20;59.50;;;;;;5008611;28;19977;-69
2023/05/10 10:59:43;;;;;;;;;;;32.70;57.50;;;;;;5011098;28;19925;-69
2023/05/10 11:02:09;;;;;;;;;;;33.40;57.70;;;;;;4997046;28;19918;-69
2023/05/10 11:04:46;;;;;;;;;;;34.10;56.80;;;;;;4992070;28;19953;-70
2023/05/10 11:07:18;;;;;;;;;;;34.50;57.30;;;;;;5006978;28;19929;-69
2023/05/10 11:09:44;;;;;;;;;;;34.60;56.00;;;;;;5007169;28;19941;-70
2023/05/10 11:12:09;;;;;;;;;;;34.00;54.30;;;;;;5010161;28;19918;-69
2023/05/10 11:14:35;;;;;;;;;;;33.40;55.00;;;;;;5011081;28;19920;-67
2023/05/10 11:17:01;;;;;;;;;;;32.80;55.10;;;;;;4997847;28;19929;-68
2023/05/10 11:19:29;;;;;;;;;;;32.20;57.00;;;;;;5008750;28;19914;-68
2023/05/10 11:22:03;;;;;;;;;;;31.80;56.80;;;;;;4984771;28;19997;-63
2023/05/10 11:24:29;;;;;;;;;;;31.40;56.80;;;;;;4974091;28;19914;-63
2023/05/10 11:26:54;;;;;;;;;;;31.10;57.10;;;;;;4973700;28;19969;-63
2023/05/10 11:29:20;;;;;;;;;;;31.10;58.60;;;;;;4974155;28;19950;-63
2023/05/10 11:31:46;;;;;;;;;;;31.70;59.40;;;;;;4978372;28;20052;-63
2023/05/10 11:34:22;;;;;;;;;;;32.40;58.30;;;;;;4993036;28;19921;-63
2023/05/10 11:36:50;;;;;;;;;;;33.10;56.70;;;;;;4987442;28;19919;-64
2023/05/10 11:39:16;;;;;;;;;;;33.70;56.00;;;;;;4973785;28;20004;-63
2023/05/10 11:41:41;;;;;;;;;;;34.30;56.00;;;;;;4979574;28;20009;-63
2023/05/10 11:44:08;;;;;;;;;;;34.80;55.40;;;;;;4975156;28;20330;-63
2023/05/10 11:46:34;;;;;;;;;;;35.30;55.30;;;;;;4989614;28;19925;-63
2023/05/10 11:49:06;;;;;;;;;;;35.70;54.50;;;;;;4973410;28;20405;-63
2023/05/10 11:51:39;;;;;;;;;;;36.20;53.30;;;;;;4979369;28;19928;-63
2023/05/10 11:54:09;;;;;;;;;;;36.70;53.30;;;;;;4992734;28;19920;-64
2023/05/10 11:56:34;;;;;;;;;;;37.10;51.90;;;;;;4991897;28;19967;-63
2023/05/10 11:59:01;;;;;;;;;;;37.50;51.10;;;;;;4992961;28;20012;-64
2023/05/10 12:01:27;;;;;;;;;;;37.80;50.40;;;;;;5007803;28;19921;-63
2023/05/10 12:03:54;;;;;;;;;;;38.20;49.60;;;;;;4992011;28;19921;-64
2023/05/10 12:06:20;;;;;;;;;;;37.80;47.00;;;;;;4990253;28;19972;-63
2023/05/10 12:08:46;;;;;;;;;;;37.00;48.20;;;;;;4992324;28;20277;-63
2023/05/10 12:11:12;;;;;;;;;;;36.00;49.00;;;;;;4992454;28;20399;-63
2023/05/10 12:13:41;;;;;;;;;;;35.20;51.00;;;;;;4992606;28;19913;-62
2023/05/10 12:16:17;;;;;;;;;;;34.50;52.10;;;;;;4975407;28;19981;-62
2023/05/10 12:18:42;;;;;;;;;;;34.00;52.40;;;;;;4973484;28;19914;-63
2023/05/10 12:21:10;;;;;;;;;;;33.40;52.00;;;;;;4992225;28;20338;-62
2023/05/10 12:23:36;;;;;;;;;;;32.80;50.90;;;;;;4991960;28;19909;-63
2023/05/10 12:26:04;;;;;;;;;;;32.30;52.50;;;;;;4974967;28;19919;-62
2023/05/10 12:28:30;;;;;;;;;;;31.80;51.00;;;;;;4973002;28;20338;-65
2023/05/10 12:30:57;;;;;;;;;;;31.30;52.30;;;;;;4960515;28;19928;-62
2023/05/10 12:33:22;;;;;;;;;;;30.90;53.50;;;;;;4973201;28;19914;-63
2023/05/10 12:35:52;;;;;;;;;;;30.70;54.60;;;;;;4976019;28;20434;-62
2023/05/10 12:38:33;;;;;;;;;;;30.50;53.80;;;;;;4972817;28;20397;-63
2023/05/10 12:40:59;;;;;;;;;;;30.30;53.40;;;;;;4992083;28;20009;-63
2023/05/10 12:43:25;;;;;;;;;;;30.20;53.10;;;;;;4992327;28;19917;-63
2023/05/10 12:45:50;;;;;;;;;;;30.10;52.70;;;;;;4991366;28;19918;-63
2023/05/10 12:48:16;;;;;;;;;;;30.10;53.80;;;;;;4992199;28;19968;-63
2023/05/10 12:50:41;;;;;;;;;;;30.20;52.40;;;;;;4974348;28;20348;-63
2023/05/10 12:53:07;;;;;;;;;;;30.10;51.60;;;;;;4972755;28;20009;-63
2023/05/10 12:55:32;;;;;;;;;;;29.80;51.30;;;;;;4986894;28;20061;-62
2023/05/10 12:57:58;;;;;;;;;;;29.50;51.90;;;;;;4987045;28;19968;-64
2023/05/10 13:00:23;;;;;;;;;;;29.30;52.40;;;;;;4977122;28;19965;-62
2023/05/10 13:02:48;;;;;;;;;;;29.10;54.80;;;;;;4977197;28;20029;-62
2023/05/10 13:05:14;;;;;;;;;;;29.20;54.80;;;;;;4983159;28;19917;-63
2023/05/10 13:07:40;;;;;;;;;;;29.10;55.00;;;;;;4979313;28;19914;-63
2023/05/10 13:10:06;;;;;;;;;;;29.20;56.70;;;;;;4978325;28;20023;-62
2023/05/10 13:12:31;;;;;;;;;;;29.40;57.20;;;;;;4983591;28;20385;-62
2023/05/10 13:14:57;;;;;;;;;;;30.00;57.00;;;;;;4986883;28;19922;-64
2023/05/10 13:17:22;;;;;;;;;;;30.70;56.00;;;;;;4982698;28;19918;-63
2023/05/10 13:19:48;;;;;;;;;;;31.10;55.60;;;;;;4994383;28;19914;-63
2023/05/10 13:22:13;;;;;;;;;;;31.40;52.80;;;;;;4994084;28;19918;-63
2023/05/10 13:24:39;;;;;;;;;;;31.90;52.10;;;;;;4990696;28;19914;-61
2023/05/10 13:27:04;;;;;;;;;;;32.50;48.60;;;;;;4982071;28;19918;-61
2023/05/10 13:29:30;;;;;;;;;;;33.30;48.90;;;;;;4995477;28;19914;-61
2023/05/10 13:31:55;;;;;;;;;;;33.40;45.90;;;;;;4994105;28;19932;-61
2023/05/10 13:34:21;;;;;;;;;;;33.00;46.40;;;;;;4995368;28;19918;-65
2023/05/10 13:36:47;;;;;;;;;;;32.30;46.80;;;;;;4993654;28;19940;-62
2023/05/10 13:39:12;;;;;;;;;;;31.70;48.90;;;;;;4995327;28;20253;-63
2023/05/10 13:41:38;;;;;;;;;;;31.10;49.20;;;;;;4994161;28;19921;-63
2023/05/10 13:44:03;;;;;;;;;;;30.70;50.00;;;;;;4994307;28;19913;-63
2023/05/10 13:46:29;;;;;;;;;;;30.30;50.10;;;;;;4994707;28;20289;-61
2023/05/10 13:48:55;;;;;;;;;;;29.90;49.10;;;;;;4994695;28;19914;-61
2023/05/10 13:51:20;;;;;;;;;;;29.50;51.10;;;;;;4994941;28;19918;-62
2023/05/10 13:53:46;;;;;;;;;;;29.00;50.30;;;;;;4995215;28;19932;-68
2023/05/10 13:56:12;;;;;;;;;;;28.60;51.50;;;;;;5004261;28;19929;-68
2023/05/10 13:58:38;;;;;;;;;;;28.30;52.10;;;;;;5002889;28;20381;-68
2023/05/10 14:01:04;;;;;;;;;;;27.90;52.60;;;;;;5002409;28;19925;-69
2023/05/10 14:03:30;;;;;;;;;;;27.80;52.50;;;;;;5001223;28;19933;-68
2023/05/10 14:05:55;;;;;;;;;;;27.50;54.10;;;;;;5014260;28;19921;-68
2023/05/10 14:08:21;;;;;;;;;;;27.30;55.00;;;;;;5021151;28;20345;-68
2023/05/10 14:10:46;;;;;;;;;;;27.20;55.70;;;;;;4983002;28;19922;-69
2023/05/10 14:13:12;;;;;;;;;;;27.10;56.50;;;;;;4982356;28;19922;-69